Time;durP1;ratioP1;P1;durP2;ratioP2;P2;SDS_P1;SDS_P2;PMS_P1;PMS_P2;Temp;Humidity;BMP_temperature;BMP_pressure;BME280_temperature;BME280_humidity;BME280_pressure;Samples;Min_cycle;Max_cycle;Signal;HPM_P1;HPM_P2
2022/01/28 00:01:13;;;;;;;;;45.50;37.75;;;;;9.92;77.08;103089.13;5012021;28;45322;-59
2022/01/28 00:03:40;;;;;;;;;48.75;37.25;;;;;9.95;76.28;103081.19;5008827;28;45522;-59
2022/01/28 00:06:07;;;;;;;;;46.00;38.00;;;;;9.96;76.33;103085.56;5013429;28;45749;-59
2022/01/28 00:08:33;;;;;;;;;48.75;37.25;;;;;9.98;76.33;103085.50;5016777;28;45433;-59
2022/01/28 00:10:58;;;;;;;;;54.75;40.00;;;;;9.99;76.35;103092.50;5012037;28;45349;-59
2022/01/28 00:38:13;;;;;;;;;51.75;36.75;;;;;10.00;77.00;103112.69;5013485;28;45261;-59
2022/01/28 00:40:17;;;;;;;;;48.75;39.00;;;;;9.99;76.80;103121.47;5007321;28;45304;-59
2022/01/28 00:42:43;;;;;;;;;52.75;40.00;;;;;10.00;76.69;103120.56;5010262;28;45338;-59
2022/01/28 00:45:09;;;;;;;;;54.00;38.25;;;;;10.01;77.06;103117.91;5010653;28;45455;-59
2022/01/28 00:47:35;;;;;;;;;52.75;40.25;;;;;10.02;77.13;103119.63;5010740;28;46108;-59
2022/01/28 00:50:00;;;;;;;;;54.25;42.00;;;;;10.01;76.74;103124.94;5011252;28;45394;-59
2022/01/28 00:52:26;;;;;;;;;44.00;39.00;;;;;10.02;77.01;103126.66;5012863;28;46527;-59
2022/01/28 00:54:52;;;;;;;;;47.50;39.00;;;;;10.02;77.29;103126.66;5012985;28;45542;-59
2022/01/28 00:57:18;;;;;;;;;47.00;38.75;;;;;10.04;76.63;103120.50;5012596;28;45473;-59
2022/01/28 00:59:44;;;;;;;;;43.00;37.00;;;;;10.06;76.67;103123.09;5011891;28;45436;-59
2022/01/28 01:02:09;;;;;;;;;47.00;37.00;;;;;10.07;77.28;103138.00;5010610;28;45452;-59
2022/01/28 01:04:35;;;;;;;;;49.50;39.00;;;;;10.07;77.04;103138.00;5010342;28;45590;-59
2022/01/28 01:07:01;;;;;;;;;54.75;38.75;;;;;10.07;76.88;103130.09;5010178;28;45610;-59
2022/01/28 01:09:27;;;;;;;;;51.25;40.00;;;;;10.11;76.89;103128.25;5011009;28;45226;-59
2022/01/28 01:11:53;;;;;;;;;42.00;36.25;;;;;10.10;76.88;103127.41;5014469;28;45253;-59
2022/01/28 01:14:18;;;;;;;;;51.75;34.75;;;;;10.08;77.01;103134.47;5012617;28;45883;-59
2022/01/28 01:17:04;;;;;;;;;46.50;37.50;;;;;10.08;77.03;103140.59;5012124;28;46169;-59
2022/01/28 01:19:35;;;;;;;;;50.25;38.75;;;;;10.04;76.87;103154.72;5012680;28;45423;-59
2022/01/28 01:22:01;;;;;;;;;48.50;36.25;;;;;10.03;76.65;103146.84;5011851;28;45356;-59
2022/01/28 01:24:34;;;;;;;;;41.75;37.00;;;;;10.01;76.58;103156.53;5008672;28;45187;-59
2022/01/28 01:27:00;;;;;;;;;48.00;37.00;;;;;9.97;76.46;103150.47;5010840;28;46376;-59
2022/01/28 01:29:25;;;;;;;;;38.25;36.00;;;;;9.93;76.79;103156.69;5007128;28;45500;-59
2022/01/28 01:32:00;;;;;;;;;45.50;33.00;;;;;9.87;76.66;103153.28;5010677;28;45427;-59
2022/01/28 01:34:25;;;;;;;;;38.00;30.25;;;;;9.85;76.62;103160.34;5009562;28;45341;-59
2022/01/28 01:36:51;;;;;;;;;43.00;35.50;;;;;9.83;76.88;103160.38;5009753;28;46005;-59
2022/01/28 01:39:23;;;;;;;;;45.00;33.50;;;;;9.81;76.92;103158.66;5010198;28;45162;-59
2022/01/28 01:41:56;;;;;;;;;39.25;31.25;;;;;9.76;76.91;103154.34;5011315;28;45305;-59
2022/01/28 01:44:38;;;;;;;;;39.25;34.25;;;;;9.73;76.95;103159.66;5010938;28;45349;-59
2022/01/28 01:52:39;;;;;;;;;39.25;32.50;;;;;9.64;77.23;103175.63;5012155;28;45377;-59
2022/01/28 01:55:06;;;;;;;;;37.50;29.00;;;;;9.60;77.23;103173.91;5010739;28;45424;-59
2022/01/28 01:57:32;;;;;;;;;41.25;36.00;;;;;9.58;77.36;103174.84;5010430;28;46041;-59
2022/01/28 01:59:58;;;;;;;;;31.75;29.75;;;;;9.60;76.88;103183.56;5009747;28;45899;-59
2022/01/28 02:02:23;;;;;;;;;37.75;26.75;;;;;9.55;76.86;103188.91;5008655;28;45562;-59
2022/01/28 02:04:49;;;;;;;;;38.00;33.25;;;;;9.51;77.27;103185.47;5009486;28;45446;-59
2022/01/28 02:07:16;;;;;;;;;46.25;31.75;;;;;9.45;77.06;103193.44;5009785;28;45502;-59
2022/01/28 02:09:41;;;;;;;;;42.50;32.75;;;;;9.41;76.88;103194.41;5010859;28;45471;-59
2022/01/28 02:12:08;;;;;;;;;41.75;36.00;;;;;9.38;76.92;103202.31;5011577;28;45507;-59
2022/01/28 02:14:33;;;;;;;;;41.50;33.25;;;;;9.36;77.26;103198.84;5011320;28;45379;-59
2022/01/28 02:16:59;;;;;;;;;36.50;32.75;;;;;9.33;77.42;103203.28;5010574;28;46799;-59
2022/01/28 02:19:26;;;;;;;;;45.25;33.75;;;;;9.33;77.49;103206.78;5011366;28;45374;-59
2022/01/28 02:21:52;;;;;;;;;37.25;31.50;;;;;9.36;77.13;103201.47;5011063;28;45169;-59
2022/01/28 02:24:25;;;;;;;;;33.50;25.50;;;;;9.38;77.16;103198.81;5010224;28;45840;-59
2022/01/28 02:26:50;;;;;;;;;40.75;27.00;;;;;9.42;77.56;103203.16;5009208;28;46156;-59
2022/01/28 02:29:26;;;;;;;;;43.25;36.25;;;;;9.47;77.48;103203.94;5010842;28;45396;-59
2022/01/28 02:31:52;;;;;;;;;38.50;30.00;;;;;9.50;77.55;103201.28;5010866;28;45371;-59
2022/01/28 02:34:17;;;;;;;;;33.50;25.25;;;;;9.50;76.99;103203.91;5010103;28;45607;-59
2022/01/28 02:36:43;;;;;;;;;50.25;36.50;;;;;9.48;76.84;103210.97;5010005;28;46073;-59
2022/01/28 02:39:10;;;;;;;;;40.75;36.00;;;;;9.47;77.20;103211.81;5008359;28;45375;-59
2022/01/28 02:41:40;;;;;;;;;35.75;30.00;;;;;9.44;77.21;103218.00;5006875;28;45421;-59
2022/01/28 02:44:21;;;;;;;;;44.25;34.00;;;;;9.40;77.48;103213.72;5008206;28;45610;-59
2022/01/28 02:47:00;;;;;;;;;37.75;31.00;;;;;9.40;77.23;103212.81;5011799;28;46409;-59
2022/01/28 02:49:28;;;;;;;;;37.50;29.75;;;;;9.41;77.01;103211.94;5008786;28;45388;-59
2022/01/28 02:51:57;;;;;;;;;34.25;28.50;;;;;9.42;77.31;103218.94;5008736;28;45268;-59
2022/01/28 02:54:22;;;;;;;;;49.25;28.50;;;;;9.41;77.05;103214.56;5009112;28;45329;-59
2022/01/28 02:57:09;;;;;;;;;40.25;31.75;;;;;9.41;77.32;103217.22;5010540;28;46164;-59
2022/01/28 02:59:33;;;;;;;;;51.25;34.75;;;;;9.34;77.05;103229.56;5008730;28;45216;-59
2022/01/28 03:01:59;;;;;;;;;50.00;30.25;;;;;9.30;77.25;103219.09;5007065;28;45497;-59
2022/01/28 03:07:08;;;;;;;;;33.25;28.00;;;;;9.29;77.28;103202.44;5009803;28;45329;-59
2022/01/28 03:10:25;;;;;;;;;37.50;25.00;;;;;9.29;77.29;103199.81;5009305;28;45277;-59
2022/01/28 03:12:32;;;;;;;;;28.25;25.50;;;;;9.29;76.70;103198.97;5011851;28;45251;-59
2022/01/28 03:15:03;;;;;;;;;33.00;28.50;;;;;9.32;76.80;103193.63;5010394;28;45762;-59
2022/01/28 03:17:52;;;;;;;;;45.00;30.50;;;;;9.31;77.00;103198.03;5010262;28;46404;-59
2022/01/28 03:22:43;;;;;;;;;31.75;27.25;;;;;9.34;76.99;103191.88;5010175;28;45235;-59
2022/01/28 03:25:09;;;;;;;;;37.50;26.25;;;;;9.36;76.53;103184.81;5010957;28;45264;-59
2022/01/28 03:27:58;;;;;;;;;39.50;32.00;;;;;9.35;76.45;103188.34;5010757;28;46431;-59
2022/01/28 03:30:23;;;;;;;;;40.00;29.25;;;;;9.37;76.88;103199.72;5010298;28;45688;-59
2022/01/28 03:32:49;;;;;;;;;41.50;29.75;;;;;9.38;77.06;103202.31;5008542;28;45411;-59
2022/01/28 03:35:16;;;;;;;;;41.00;32.25;;;;;9.38;76.85;103199.69;5010709;28;45327;-59
2022/01/28 03:37:43;;;;;;;;;31.50;27.75;;;;;9.40;76.45;103194.38;5011907;28;45376;-58
2022/01/28 03:40:09;;;;;;;;;34.00;29.25;;;;;9.42;76.59;103195.25;5011609;28;45411;-59
2022/01/28 03:42:36;;;;;;;;;42.50;30.50;;;;;9.42;75.97;103203.16;5014226;28;45454;-59
2022/01/28 03:45:02;;;;;;;;;33.75;30.00;;;;;9.39;76.51;103200.56;5012013;28;45451;-59
2022/01/28 03:47:28;;;;;;;;;46.75;36.25;;;;;9.38;76.74;103209.34;5011310;28;45389;-58
2022/01/28 03:49:53;;;;;;;;;43.75;36.25;;;;;9.40;76.99;103216.34;5011335;28;45259;-59
2022/01/28 03:52:19;;;;;;;;;46.50;32.50;;;;;9.39;76.86;103214.56;5009773;28;45326;-59
2022/01/28 03:54:44;;;;;;;;;39.50;31.00;;;;;9.39;76.87;103211.94;5012271;28;45530;-59
2022/01/28 03:57:09;;;;;;;;;32.75;26.50;;;;;9.41;76.43;103233.84;5010862;28;46415;-59
2022/01/28 03:59:35;;;;;;;;;40.75;31.25;;;;;9.42;76.73;103235.59;5012985;28;45316;-59
2022/01/28 04:02:02;;;;;;;;;34.75;31.00;;;;;9.39;76.35;103232.97;5014390;28;45389;-59
2022/01/28 04:12:26;;;;;;;;;43.75;32.75;;;;;9.36;76.22;103245.31;5013008;28;45434;-59
2022/01/28 04:15:18;;;;;;;;;41.00;35.25;;;;;9.38;76.67;103243.53;5015118;28;45419;-59
2022/01/28 04:17:44;;;;;;;;;36.75;35.25;;;;;9.40;76.15;103228.59;5014277;28;46127;-59
2022/01/28 04:20:09;;;;;;;;;33.25;29.00;;;;;9.40;76.61;103239.13;5011082;28;45313;-59
2022/01/28 04:22:35;;;;;;;;;46.50;33.75;;;;;9.38;76.61;103239.13;5012110;28;45356;-59
2022/01/28 04:25:00;;;;;;;;;41.25;31.75;;;;;9.37;76.67;103236.53;5011246;28;45496;-59
2022/01/28 04:27:26;;;;;;;;;31.00;25.75;;;;;9.36;76.40;103238.31;5010776;28;45308;-59
2022/01/28 04:29:52;;;;;;;;;39.00;33.25;;;;;9.38;76.27;103241.78;5008092;28;45450;-59
2022/01/28 04:32:19;;;;;;;;;40.25;33.25;;;;;9.40;76.63;103249.63;5010923;28;45387;-59
2022/01/28 04:34:45;;;;;;;;;37.75;34.00;;;;;9.41;76.62;103247.00;5011807;28;45514;-59
2022/01/28 04:37:19;;;;;;;;;46.75;37.25;;;;;9.43;76.47;103241.72;5012407;28;45374;-59
2022/01/28 04:40:01;;;;;;;;;32.25;30.00;;;;;9.45;76.35;103246.06;5012079;28;45399;-59
2022/01/28 04:47:56;;;;;;;;;34.50;27.00;;;;;9.49;75.90;103244.28;5011121;28;46039;-59
2022/01/28 04:55:41;;;;;;;;;42.75;28.75;;;;;9.51;76.17;103247.75;5010686;28;45217;-59
2022/01/28 05:24:31;;;;;;;;;38.00;27.75;;;;;9.48;75.72;103282.00;5013661;28;45349;-59
2022/01/28 05:27:03;;;;;;;;;33.75;28.50;;;;;9.44;76.20;103281.16;5009820;28;45332;-59
2022/01/28 05:29:29;;;;;;;;;45.50;35.50;;;;;9.41;75.88;103288.22;5005726;28;46198;-59
2022/01/28 05:31:54;;;;;;;;;42.25;29.25;;;;;9.41;76.15;103296.13;5010561;28;45593;-59
2022/01/28 05:34:24;;;;;;;;;32.75;23.25;;;;;9.42;75.72;103298.72;5012260;28;45253;-59
2022/01/28 05:36:50;;;;;;;;;37.25;29.00;;;;;9.42;75.90;103297.88;5011364;28;45459;-59
2022/01/28 05:39:15;;;;;;;;;42.50;33.50;;;;;9.36;75.98;103298.81;5013837;28;45412;-59
2022/01/28 05:41:41;;;;;;;;;37.50;29.75;;;;;9.35;76.59;103296.19;5011216;28;45412;-59
2022/01/28 05:44:06;;;;;;;;;35.75;30.75;;;;;9.32;76.29;103294.50;5012071;28;45551;-59
2022/01/28 05:46:32;;;;;;;;;37.00;26.75;;;;;9.27;76.37;103301.56;5011206;28;45449;-59
2022/01/28 05:48:58;;;;;;;;;43.75;35.75;;;;;9.22;76.72;103306.88;5008738;28;45284;-59
2022/01/28 05:51:24;;;;;;;;;41.00;29.50;;;;;9.19;76.26;103311.31;5010357;28;45515;-59
2022/01/28 05:53:49;;;;;;;;;36.75;29.00;;;;;9.18;76.81;103309.56;5007874;28;45443;-59
2022/01/28 05:56:15;;;;;;;;;47.00;32.75;;;;;9.14;76.54;103319.22;5009807;28;45510;-59
2022/01/28 05:58:40;;;;;;;;;48.25;35.00;;;;;9.16;76.87;103325.38;5010568;28;45903;-59
2022/01/28 06:01:06;;;;;;;;;35.50;32.00;;;;;9.18;76.79;103327.97;5010433;28;45461;-59
2022/01/28 06:03:31;;;;;;;;;40.00;34.25;;;;;9.18;76.54;103331.47;5012634;28;45490;-59
2022/01/28 06:05:57;;;;;;;;;39.75;29.50;;;;;9.20;76.40;103336.72;5011664;28;45368;-59
2022/01/28 06:08:23;;;;;;;;;38.50;31.00;;;;;9.20;76.37;103337.56;5010489;28;45957;-59
2022/01/28 06:10:48;;;;;;;;;43.75;33.00;;;;;9.18;76.38;103341.13;5010223;28;45399;-58
2022/01/28 06:13:14;;;;;;;;;39.75;32.50;;;;;9.17;76.50;103329.75;5007971;28;45419;-59
2022/01/28 06:15:43;;;;;;;;;38.75;28.00;;;;;9.18;76.30;103326.22;5011224;28;45417;-59
2022/01/28 06:18:10;;;;;;;;;39.00;33.00;;;;;9.17;76.78;103332.38;5000909;28;45224;-59
2022/01/28 06:20:35;;;;;;;;;39.00;32.75;;;;;9.19;76.54;103341.09;5001001;28;45348;-59
2022/01/28 06:23:01;;;;;;;;;41.75;33.25;;;;;9.21;76.09;103335.81;5000972;28;45219;-59
2022/01/28 06:25:26;;;;;;;;;38.75;27.00;;;;;9.23;76.52;103339.28;5010880;28;45298;-59
2022/01/28 06:27:52;;;;;;;;;36.25;29.50;;;;;9.26;76.08;103333.16;5003605;28;45445;-59
2022/01/28 06:30:19;;;;;;;;;29.75;26.50;;;;;9.29;76.35;103347.13;5003293;28;45190;-59
2022/01/28 06:32:45;;;;;;;;;40.25;30.75;;;;;9.31;76.14;103340.06;5016647;28;45442;-59
2022/01/28 06:35:10;;;;;;;;;35.25;26.50;;;;;9.33;75.72;103342.72;5019506;28;45351;-59
2022/01/28 06:37:38;;;;;;;;;44.50;30.00;;;;;9.36;75.76;103338.25;5016304;28;46166;-59
2022/01/28 06:40:15;;;;;;;;;34.00;23.25;;;;;9.38;75.54;103327.72;5010596;28;45312;-59
2022/01/28 06:42:42;;;;;;;;;39.75;32.50;;;;;9.41;75.67;103327.69;5000907;28;45318;-59
2022/01/28 06:45:08;;;;;;;;;39.25;34.50;;;;;9.42;75.53;103330.31;5010065;28;45334;-59
2022/01/28 06:47:37;;;;;;;;;35.50;27.50;;;;;9.43;75.32;103336.44;5009362;28;45653;-58
2022/01/28 06:50:05;;;;;;;;;32.00;25.25;;;;;9.42;75.67;103346.09;5005966;28;45592;-60
2022/01/28 06:52:31;;;;;;;;;34.25;29.50;;;;;9.45;75.33;103343.41;5010580;28;45707;-59
2022/01/28 06:54:57;;;;;;;;;34.00;27.50;;;;;9.47;75.23;103344.25;5010958;28;45227;-60
2022/01/28 06:57:23;;;;;;;;;28.75;26.75;;;;;9.49;75.25;103345.13;5008609;28;45476;-60
2022/01/28 06:59:48;;;;;;;;;33.25;27.50;;;;;9.48;75.26;103340.75;5018371;28;45518;-60
2022/01/28 07:02:14;;;;;;;;;29.50;27.50;;;;;9.46;74.77;103349.53;5008086;28;45461;-60
2022/01/28 07:04:39;;;;;;;;;43.75;29.25;;;;;9.46;75.07;103357.44;5011287;28;45602;-60
2022/01/28 07:07:05;;;;;;;;;40.75;33.00;;;;;9.45;74.69;103358.31;5012173;28;46097;-59
2022/01/28 07:09:31;;;;;;;;;32.00;25.25;;;;;9.46;74.90;103353.03;5012144;28;45483;-59
2022/01/28 07:11:57;;;;;;;;;40.75;32.75;;;;;9.46;74.67;103350.41;5016291;28;45444;-60
2022/01/28 07:14:22;;;;;;;;;35.75;26.50;;;;;9.47;74.82;103354.75;5008254;28;45432;-60
2022/01/28 07:16:48;;;;;;;;;41.00;29.50;;;;;9.48;74.99;103361.78;5002521;28;45780;-59
2022/01/28 07:19:13;;;;;;;;;41.00;31.50;;;;;9.49;74.96;103363.53;5003102;28;45455;-60
2022/01/28 07:21:39;;;;;;;;;44.25;34.75;;;;;9.50;74.84;103364.41;5003663;28;45166;-60
2022/01/28 07:24:05;;;;;;;;;42.50;36.25;;;;;9.49;74.91;103366.16;5003398;28;45162;-60
2022/01/28 07:26:30;;;;;;;;;42.00;34.75;;;;;9.50;74.96;103372.31;5003338;28;46203;-60
2022/01/28 07:28:56;;;;;;;;;44.75;33.00;;;;;9.46;74.52;103379.34;5007455;28;45444;-60
2022/01/28 07:31:22;;;;;;;;;40.75;32.50;;;;;9.46;74.71;103379.34;5023101;28;45445;-60
2022/01/28 07:33:47;;;;;;;;;38.00;29.25;;;;;9.45;74.85;103382.00;5023526;28;45317;-60
2022/01/28 07:36:13;;;;;;;;;40.75;34.50;;;;;9.45;74.50;103384.63;5016670;28;45399;-60
2022/01/28 07:38:39;;;;;;;;;35.75;30.00;;;;;9.46;74.36;103389.00;5019169;28;45842;-60
2022/01/28 07:41:05;;;;;;;;;35.50;31.75;;;;;9.42;74.92;103382.91;5003280;28;45415;-60
2022/01/28 07:43:33;;;;;;;;;45.50;33.25;;;;;9.39;74.53;103385.56;5003449;28;45395;-59
2022/01/28 07:45:59;;;;;;;;;50.25;31.50;;;;;9.38;74.77;103391.72;5002996;28;46149;-60
2022/01/28 07:48:24;;;;;;;;;42.50;35.50;;;;;9.36;75.09;103390.88;5003347;28;45226;-60
2022/01/28 07:50:50;;;;;;;;;41.00;35.50;;;;;9.39;74.63;103403.97;5003338;28;45353;-60
2022/01/28 07:53:17;;;;;;;;;48.25;37.00;;;;;9.42;74.68;103401.34;5003336;28;45450;-59
2022/01/28 07:55:43;;;;;;;;;39.00;32.75;;;;;9.44;74.53;103409.19;5003015;28;45307;-60
2022/01/28 07:58:09;;;;;;;;;33.25;31.25;;;;;9.48;74.51;103414.41;5006602;28;45321;-60
2022/01/28 08:00:34;;;;;;;;;44.00;36.50;;;;;9.51;74.64;103411.75;5010041;28;45523;-60
2022/01/28 08:03:00;;;;;;;;;38.00;32.00;;;;;9.56;74.38;103410.78;5008949;28;45349;-60
2022/01/28 08:05:26;;;;;;;;;42.50;36.50;;;;;9.57;74.52;103423.09;5013530;28;45469;-60
2022/01/28 08:07:52;;;;;;;;;34.25;27.00;;;;;9.59;73.91;103421.31;5016436;28;45452;-60
2022/01/28 08:10:19;;;;;;;;;35.25;29.50;;;;;9.60;73.75;103423.91;5005470;28;45409;-60
2022/01/28 08:12:50;;;;;;;;;38.00;29.75;;;;;9.62;73.77;103414.22;5003003;28;45436;-60
2022/01/28 08:15:16;;;;;;;;;45.75;28.25;;;;;9.64;73.63;103423.00;5002621;28;45400;-60
2022/01/28 08:17:42;;;;;;;;;46.25;33.75;;;;;9.64;73.56;103422.13;5002894;28;45386;-60
2022/01/28 08:20:08;;;;;;;;;18.75;16.25;;;;;9.62;72.91;103423.88;5002996;28;45385;-59
2022/01/28 08:22:49;;;;;;;;;34.50;29.50;;;;;9.58;73.15;103420.44;5003091;28;45226;-60
2022/01/28 08:25:16;;;;;;;;;44.75;33.50;;;;;9.55;72.99;103420.44;5002145;28;46139;-60
2022/01/28 08:27:45;;;;;;;;;38.00;29.25;;;;;9.52;72.43;103424.00;5002802;28;45357;-59
2022/01/28 08:30:15;;;;;;;;;45.50;37.25;;;;;9.49;72.74;103434.56;5018453;28;45163;-60
2022/01/28 08:32:42;;;;;;;;;35.50;28.25;;;;;9.48;72.65;103440.72;5022612;28;45284;-60
2022/01/28 08:35:08;;;;;;;;;39.00;27.75;;;;;9.44;72.53;103446.91;5022441;28;45399;-59
2022/01/28 08:37:34;;;;;;;;;41.50;33.25;;;;;9.41;72.86;103451.34;5022606;28;45274;-60
2022/01/28 08:40:00;;;;;;;;;41.00;33.50;;;;;9.39;72.27;103459.22;5018861;28;45477;-60
2022/01/28 08:42:27;;;;;;;;;39.00;31.50;;;;;9.34;72.73;103468.06;5002834;28;45569;-60
2022/01/28 08:44:52;;;;;;;;;47.25;33.50;;;;;9.36;72.31;103474.19;5002317;28;46105;-60
2022/01/28 08:47:18;;;;;;;;;41.75;35.25;;;;;9.34;72.41;103474.22;5002258;28;45326;-60
2022/01/28 08:49:43;;;;;;;;;35.75;28.00;;;;;9.35;72.66;103475.94;5002488;28;45341;-60
2022/01/28 08:52:09;;;;;;;;;47.00;33.75;;;;;9.38;72.08;103473.28;5002468;28;45461;-60
2022/01/28 08:54:34;;;;;;;;;44.50;34.00;;;;;9.41;72.33;103481.16;5002225;28;46129;-60
2022/01/28 08:57:00;;;;;;;;;40.00;31.25;;;;;9.44;72.29;103477.59;5002340;28;45471;-60
2022/01/28 08:59:25;;;;;;;;;42.50;30.25;;;;;9.45;71.89;103481.97;5009830;28;45460;-60
2022/01/28 09:01:51;;;;;;;;;47.25;35.50;;;;;9.51;71.92;103490.69;5021920;28;45406;-60
2022/01/28 09:04:16;;;;;;;;;38.25;28.50;;;;;9.55;71.76;103496.75;5022140;28;46546;-59
2022/01/28 09:06:42;;;;;;;;;33.75;29.00;;;;;9.54;71.54;103500.28;5021543;28;45254;-60
2022/01/28 09:09:07;;;;;;;;;45.75;35.25;;;;;9.54;71.80;103495.03;5022191;28;45419;-60
2022/01/28 09:11:46;;;;;;;;;34.75;31.50;;;;;9.56;71.58;103500.25;5007687;28;45460;-59
2022/01/28 09:14:13;;;;;;;;;41.00;30.50;;;;;9.63;71.69;103499.31;5001952;28;45258;-59
2022/01/28 09:16:38;;;;;;;;;33.75;28.75;;;;;9.64;71.61;103496.69;5001430;28;45420;-60
2022/01/28 09:19:04;;;;;;;;;44.00;32.00;;;;;9.69;71.24;103497.50;5002100;28;45355;-60
2022/01/28 09:21:29;;;;;;;;;33.00;31.00;;;;;9.75;71.21;103496.56;5002079;28;45360;-60
2022/01/28 09:23:55;;;;;;;;;43.50;31.50;;;;;9.79;71.54;103490.34;5001762;28;45373;-59
2022/01/28 09:26:20;;;;;;;;;46.00;32.00;;;;;9.85;70.65;103495.56;5001735;28;45284;-60
2022/01/28 09:28:46;;;;;;;;;30.75;26.25;;;;;9.91;70.46;103502.50;5010478;28;45335;-60
2022/01/28 09:31:11;;;;;;;;;38.75;31.50;;;;;9.95;70.92;103506.84;5021376;28;45323;-59
2022/01/28 09:33:37;;;;;;;;;31.25;29.25;;;;;9.96;70.17;103506.84;5021567;28;45427;-60
2022/01/28 09:36:07;;;;;;;;;28.00;25.75;;;;;10.00;70.06;103505.03;5006843;28;45302;-60
2022/01/28 09:38:33;;;;;;;;;38.25;29.00;;;;;10.05;69.88;103508.47;5020778;28;45253;-59
2022/01/28 09:41:01;;;;;;;;;41.00;31.25;;;;;10.08;69.94;103504.03;5005254;28;45435;-59
2022/01/28 09:43:28;;;;;;;;;39.50;32.25;;;;;10.11;68.95;103503.16;5001501;28;45804;-60
2022/01/28 09:45:53;;;;;;;;;29.00;24.50;;;;;10.16;69.44;103497.81;5000906;28;45388;-60
2022/01/28 09:48:20;;;;;;;;;26.00;23.25;;;;;10.22;69.17;103503.00;5001661;28;45305;-60
2022/01/28 09:50:46;;;;;;;;;34.00;25.50;;;;;10.29;69.09;103502.91;5001662;28;45450;-60
2022/01/28 09:53:15;;;;;;;;;31.75;24.00;;;;;10.36;68.99;103508.13;5001395;28;45438;-60
2022/01/28 09:55:42;;;;;;;;;37.50;29.50;;;;;10.43;69.16;103499.22;5001388;28;45399;-60
2022/01/28 09:58:07;;;;;;;;;27.50;23.75;;;;;10.50;68.93;103501.72;5001646;28;45443;-60
2022/01/28 10:00:34;;;;;;;;;24.75;20.25;;;;;10.53;67.83;103503.47;5017849;28;45358;-60
2022/01/28 10:03:03;;;;;;;;;32.25;26.25;;;;;10.53;68.08;103508.75;5021327;28;46198;-60
2022/01/28 10:05:36;;;;;;;;;41.75;30.00;;;;;10.55;68.26;103509.56;5021015;28;45294;-60
2022/01/28 10:08:10;;;;;;;;;36.50;28.50;;;;;10.52;68.11;103510.50;5021222;28;45249;-60
2022/01/28 10:10:41;;;;;;;;;46.25;31.25;;;;;10.51;68.04;103510.53;5015354;28;45452;-60
2022/01/28 10:13:13;;;;;;;;;36.75;30.50;;;;;10.51;68.20;103500.00;5001016;28;45462;-60
2022/01/28 10:16:10;;;;;;;;;31.00;28.00;;;;;10.53;67.97;103512.25;5000814;28;45650;-60
2022/01/28 10:18:50;;;;;;;;;34.00;30.75;;;;;10.56;67.88;103514.81;5000370;28;45341;-59
2022/01/28 10:21:39;;;;;;;;;29.25;25.50;;;;;10.61;67.93;103513.00;5001181;28;45187;-60
2022/01/28 10:24:08;;;;;;;;;31.00;29.00;;;;;10.64;67.91;103514.69;5009953;28;45487;-60
2022/01/28 10:26:37;;;;;;;;;34.75;29.00;;;;;10.69;68.03;103520.78;5020834;28;45246;-59
2022/01/28 10:29:05;;;;;;;;;33.25;26.50;;;;;10.75;67.45;103518.06;5009412;28;45357;-60
2022/01/28 10:31:51;;;;;;;;;34.50;24.75;;;;;10.81;67.22;103517.06;5000812;28;45345;-60
2022/01/28 10:34:22;;;;;;;;;32.50;24.50;;;;;10.84;66.75;103517.91;5000812;28;46266;-60
2022/01/28 10:36:49;;;;;;;;;35.25;25.50;;;;;10.84;66.68;103517.91;5000999;28;45427;-60
2022/01/28 10:39:20;;;;;;;;;26.75;19.25;;;;;10.86;66.20;103525.78;5004461;28;45531;-59
2022/01/28 10:41:51;;;;;;;;;28.50;22.50;;;;;10.84;66.11;103528.47;5001074;28;45379;-59
2022/01/28 10:44:16;;;;;;;;;27.25;21.50;;;;;10.87;66.02;103532.81;5000431;28;46149;-60
2022/01/28 10:46:51;;;;;;;;;32.00;25.25;;;;;10.92;66.02;103536.25;5000605;28;45349;-60
2022/01/28 10:49:17;;;;;;;;;30.50;22.00;;;;;10.97;65.88;103531.75;5002917;28;45320;-60
2022/01/28 10:51:49;;;;;;;;;26.00;21.75;;;;;10.98;66.15;103538.81;5004599;28;45298;-60
2022/01/28 10:54:20;;;;;;;;;33.50;27.25;;;;;10.98;65.82;103529.97;5003915;28;45443;-60
2022/01/28 10:56:55;;;;;;;;;25.00;20.75;;;;;11.01;65.98;103528.19;5004135;28;45269;-60
2022/01/28 10:59:40;;;;;;;;;29.00;22.50;;;;;11.00;65.41;103529.09;5011090;28;45154;-60
2022/01/28 11:02:07;;;;;;;;;25.50;20.00;;;;;11.01;65.44;103533.47;5023758;28;45404;-59
2022/01/28 11:04:33;;;;;;;;;32.00;23.00;;;;;11.04;66.09;103540.44;5023823;28;45454;-60
2022/01/28 11:07:01;;;;;;;;;27.50;24.50;;;;;11.06;65.51;103543.91;5023897;28;45476;-60
2022/01/28 11:09:26;;;;;;;;;31.25;20.75;;;;;11.07;65.26;103538.66;5023958;28;45328;-59
2022/01/28 11:11:53;;;;;;;;;34.25;25.25;;;;;11.06;65.56;103539.53;5007688;28;45341;-59
2022/01/28 11:14:21;;;;;;;;;36.00;28.00;;;;;11.05;65.54;103536.91;5003867;28;45412;-60
2022/01/28 11:16:47;;;;;;;;;30.50;20.50;;;;;11.06;65.31;103530.72;5003601;28;45250;-59
2022/01/28 11:19:17;;;;;;;;;31.00;26.75;;;;;11.05;65.86;103521.09;5004043;28;46875;-59
2022/01/28 11:22:22;;;;;;;;;24.50;21.50;;;;;11.05;65.77;103523.72;5019844;28;45676;-59
2022/01/28 11:25:05;;;;;;;;;38.50;26.25;;;;;11.03;65.85;103523.75;5007179;28;46391;-59
2022/01/28 11:27:36;;;;;;;;;31.25;25.75;;;;;11.06;65.95;103517.53;5003659;28;45278;-59
2022/01/28 11:30:25;;;;;;;;;34.25;24.50;;;;;11.14;65.96;103519.19;5022725;28;45204;-59
2022/01/28 11:33:05;;;;;;;;;33.50;27.00;;;;;11.22;66.02;103513.78;5023484;28;45474;-59
2022/01/28 11:35:38;;;;;;;;;30.50;21.00;;;;;11.28;65.50;103513.63;5023378;28;46348;-59
2022/01/28 11:38:26;;;;;;;;;30.50;25.50;;;;;11.31;65.03;103510.97;5023136;28;45369;-60
2022/01/28 11:40:58;;;;;;;;;31.00;22.25;;;;;11.34;65.22;103507.38;5007925;28;45290;-59
2022/01/28 11:43:29;;;;;;;;;35.75;30.50;;;;;11.32;65.29;103494.22;5003414;28;45322;-59
2022/01/28 11:46:18;;;;;;;;;28.75;25.25;;;;;11.32;64.70;103488.94;5002758;28;45430;-59
2022/01/28 11:48:52;;;;;;;;;32.50;22.00;;;;;11.29;64.52;103482.84;5003367;28;45370;-60
2022/01/28 11:51:33;;;;;;;;;29.75;27.25;;;;;11.31;64.38;103489.84;5011397;28;45235;-59
2022/01/28 11:54:09;;;;;;;;;25.50;24.50;;;;;11.32;64.53;103485.44;5023101;28;45442;-59
2022/01/28 11:56:58;;;;;;;;;32.00;25.75;;;;;11.30;64.38;103487.25;5023027;28;46022;-59
2022/01/28 11:59:28;;;;;;;;;27.75;24.00;;;;;11.26;64.42;103472.34;5022541;28;45459;-59
2022/01/28 12:01:53;;;;;;;;;27.25;21.25;;;;;11.28;64.61;103468.78;5022404;28;45305;-59
2022/01/28 12:04:29;;;;;;;;;25.00;21.50;;;;;11.30;64.67;103461.72;5023118;28;45515;-59
2022/01/28 12:07:06;;;;;;;;;22.25;19.00;;;;;11.40;64.65;103459.78;5022485;28;45497;-59
2022/01/28 12:09:34;;;;;;;;;30.50;23.25;;;;;11.48;64.53;103452.59;5022650;28;45352;-59
2022/01/28 12:12:00;;;;;;;;;26.00;22.75;;;;;11.51;64.13;103449.00;5005497;28;45487;-59
2022/01/28 12:15:10;;;;;;;;;27.00;21.25;;;;;11.54;63.96;103460.38;5003004;28;45266;-59
2022/01/28 12:17:38;;;;;;;;;28.25;22.75;;;;;11.59;64.12;103457.63;5012770;28;46498;-59
2022/01/28 12:20:15;;;;;;;;;26.50;23.25;;;;;11.64;63.73;103447.88;5022571;28;45311;-59
2022/01/28 12:23:02;;;;;;;;;25.00;19.75;;;;;11.66;63.86;103436.34;5022807;28;45663;-59
2022/01/28 12:25:36;;;;;;;;;27.00;21.25;;;;;11.66;63.93;103433.72;5022815;28;45421;-59
2022/01/28 12:28:16;;;;;;;;;23.25;21.00;;;;;11.62;63.58;103432.06;5019130;28;45207;-59
2022/01/28 12:31:00;;;;;;;;;24.00;20.75;;;;;11.58;63.76;103418.94;5002510;28;45376;-59
2022/01/28 12:33:28;;;;;;;;;30.50;25.75;;;;;11.58;63.52;103413.66;5009825;28;45500;-59
2022/01/28 12:35:56;;;;;;;;;26.00;22.00;;;;;11.54;63.26;103412.88;5022577;28;45457;-59
2022/01/28 12:38:25;;;;;;;;;24.25;19.75;;;;;11.53;63.69;103424.31;5022372;28;46190;-59
2022/01/28 12:40:54;;;;;;;;;12.00;7.50;;;;;11.47;63.17;103435.00;5007167;28;45562;-59
2022/01/28 12:43:22;;;;;;;;;23.00;18.00;;;;;11.40;63.21;103436.03;5002530;28;45268;-59